Flight Track Log - Related Links

Times and Time Zones

All times are in EDT time to prevent confusion due to time zone crossing. See the SKQ45 flight status page for this flight to view local times or setup timezone preferences in your user account.

Time Position Orientation Groundspeed Altitude Reporting Facility
EDT Latitude Longitude Course Direction KTS MPH feet Rate Location/Type
Sat 12:00:39 AM 38.7667 -90.2500 72° East 169 194 3,400  Level Gateway (St. Louis) TRACON
Sat 12:00:58 AM 38.7719 -90.2431 46° Northeast 170 196 3,900 1,800 Climbing Kansas City Center
Sat 12:01:59 AM 38.7825 -90.1867 76° East 167 192 5,800 1,800 Climbing Kansas City Center
Sat 12:02:58 AM 38.7847 -90.1253 87° East 169 194 7,500 1,686 Climbing Kansas City Center
Sat 12:04:00 AM 38.7856 -90.0631 89° East 174 200 9,200 1,512 Climbing Kansas City Center
Sat 12:05:01 AM 38.7886 -89.9989 86° East 177 204 10,600 1,415 Climbing Kansas City Center
Sat 12:06:03 AM 38.7933 -89.9306 85° East 188 216 12,100 1,438 Climbing Kansas City Center
Sat 12:07:02 AM 38.7978 -89.8661 85° East 185 213 13,500 1,328 Climbing Kansas City Center
Sat 12:08:05 AM 38.8028 -89.7978 85° East 189 217 14,800 1,210 Climbing Kansas City Center
Sat 12:09:06 AM 38.8083 -89.7303 84° East 192 221 16,000 1,190 Climbing Kansas City Center
Sat 12:10:06 AM 38.8142 -89.6506 85° East 191 220 17,200 1,091 Climbing Kansas City Center
Sat 12:11:07 AM 38.8200 -89.5817 84° East 194 223 18,200 893 Climbing Kansas City Center
Sat 12:12:07 AM 38.8261 -89.5136 83° East 192 221 19,000 393 Climbing Kansas City Center
Sat 12:13:09 AM 38.8325 -89.4383 84° East 210 242 19,000  Level Kansas City Center
Sat 12:14:09 AM 38.8397 -89.3536 84° East 237 273 19,000  Level Kansas City Center
Sat 12:15:12 AM 38.8567 -89.2625 77° East 244 281 19,000  Level Kansas City Center
Sat 12:16:14 AM 38.8761 -89.1783 73° East 246 283 19,000  Level Kansas City Center
Sat 12:17:14 AM 38.8950 -89.0933 74° East 248 285 19,000  Level Kansas City Center
Sat 12:18:15 AM 38.9142 -89.0083 74° East 249 287 19,000  Level Kansas City Center
Sat 12:19:16 AM 38.9328 -88.9281 73° East 248 285 19,000  Level Kansas City Center
Sat 12:20:17 AM 38.9528 -88.8425 73° East 251 289 19,000  Level Kansas City Center
Sat 12:21:16 AM 38.9719 -88.7572 74° East 250 288 19,000  Level Kansas City Center
Sat 12:22:19 AM 38.9906 -88.6703 75° East 251 289 19,000  Level Kansas City Center
Sat 12:23:18 AM 39.0125 -88.5828 72° East 252 290 19,000  Level Kansas City Center
Sat 12:24:19 AM 39.0308 -88.4958 75° East 251 289 19,000  Level Kansas City Center
Sat 12:25:22 AM 39.0492 -88.4092 75° East 251 289 19,000  Level Kansas City Center
Sat 12:26:21 AM 39.0717 -88.3042 75° East 252 290 19,000  Level Kansas City Center
Sat 12:27:24 AM 39.0922 -88.2172 73° East 252 290 19,000  Level Kansas City Center
Sat 12:28:23 AM 39.1108 -88.1306 75° East 251 289 19,000  Level Kansas City Center
Sat 12:29:26 AM 39.1294 -88.0422 75° East 253 291 19,000  Level Kansas City Center
Sat 12:30:27 AM 39.1481 -87.9561 74° East 250 288 19,000  Level Kansas City Center
Sat 12:31:26 AM 39.1667 -87.8681 75° East 252 290 19,000  Level Kansas City Center
Sat 12:32:38 AM 39.1878 -87.7664 75° East 249 287 19,000  Level Indianapolis Center
Sat 12:33:39 AM 39.2056 -87.6800 75° East 248 285 19,000  Level Indianapolis Center
Sat 12:34:39 AM 39.2250 -87.5928 74° East 249 287 19,000  Level Indianapolis Center
Sat 12:35:40 AM 39.2436 -87.5083 74° East 248 285 19,000  Level Indianapolis Center
Sat 12:36:40 AM 39.2608 -87.4228 75° East 247 284 19,000  Level Indianapolis Center
Sat 12:37:41 AM 39.2783 -87.3383 75° East 246 283 19,000  Level Indianapolis Center
Sat 12:38:41 AM 39.2958 -87.2519 75° East 247 284 19,000  Level Indianapolis Center
Sat 12:39:42 AM 39.3144 -87.1664 74° East 249 287 19,000  Level Indianapolis Center
Sat 12:40:42 AM 39.3317 -87.0797 76° East 249 287 19,000  Level Indianapolis Center
Sat 12:41:43 AM 39.3503 -86.9933 74° East 251 289 19,000  Level Indianapolis Center
Sat 12:42:43 AM 39.3672 -86.9047 76° East 253 291 19,000  Level Indianapolis Center
Sat 12:43:43 AM 39.3856 -86.8172 75° East 255 293 19,000  Level Indianapolis Center
Sat 12:44:44 AM 39.4033 -86.7294 75° East 255 293 19,000  Level Indianapolis Center
Sat 12:45:44 AM 39.4214 -86.6408 75° East 256 295 19,000  Level Indianapolis Center
Sat 12:46:45 AM 39.4386 -86.5525 76° East 255 293 19,000  Level Indianapolis Center
Sat 12:47:45 AM 39.4569 -86.4633 75° East 257 296 19,000  Level Indianapolis Center
Sat 12:48:46 AM 39.4739 -86.3750 76° East 255 293 19,000  Level Indianapolis Center
Sat 12:49:46 AM 39.4914 -86.2869 76° East 256 295 19,000  Level Indianapolis Center
Sat 12:50:46 AM 39.5133 -86.1797 75° East 260 299 19,000  Level Indianapolis Center
Sat 12:51:47 AM 39.5297 -86.0894 77° East 261 300 19,000  Level Indianapolis Center
Sat 12:52:47 AM 39.5483 -86.0006 75° East 261 300 19,000  Level Indianapolis Center
Sat 12:53:48 AM 39.5658 -85.9094 76° East 262 302 19,000  Level Indianapolis Center
Sat 12:54:48 AM 39.5833 -85.8183 76° East 262 302 19,000  Level Indianapolis Center
Sat 12:55:48 AM 39.6014 -85.7272 76° East 263 303 19,000  Level Indianapolis Center
Sat 12:56:49 AM 39.6186 -85.6350 76° East 264 304 19,000  Level Indianapolis Center
Sat 12:57:49 AM 39.6375 -85.5433 75° East 263 303 19,000  Level Indianapolis Center
Sat 12:58:49 AM 39.6536 -85.4503 77° East 266 306 19,000  Level Indianapolis Center
Sat 12:59:50 AM 39.6728 -85.3575 75° East 267 307 19,000  Level Indianapolis Center
Sat 01:00:50 AM 39.6894 -85.2656 77° East 264 304 19,000  Level Indianapolis Center
Sat 01:01:50 AM 39.7072 -85.1736 76° East 264 304 19,000  Level Indianapolis Center
Sat 01:02:50 AM 39.7247 -85.0819 76° East 263 303 19,000  Level Indianapolis Center
Sat 01:03:51 AM 39.7411 -84.9886 77° East 265 305 19,000  Level Indianapolis Center
Sat 01:04:51 AM 39.7603 -84.8836 77° East 264 304 19,000 -450 Level Indianapolis Center
Sat 01:05:51 AM 39.7794 -84.7856 76° East 276 318 18,100 -843 Descending Indianapolis Center
Sat 01:06:52 AM 39.7956 -84.6975 77° East 293 337 17,300 -942 Descending Indianapolis Center
Sat 01:07:52 AM 39.8144 -84.5908 77° East 299 344 16,200 -1,100 Descending Indianapolis Center
Sat 01:08:52 AM 39.8333 -84.4839 77° East 302 348 15,100 -1,121 Descending Indianapolis Center
Sat 01:09:23 AM 39.8450 -84.4167 77° East 303 349 14,500 -1,082 Descending Indianapolis Center
Sat 01:09:53 AM 39.8542 -84.3758 74° East 304 350 14,000 -985 Descending Indianapolis Center
Sat 01:10:30 AM 39.8667 -84.3025 77° East 303 349 13,400 -1,100 Descending Indianapolis Center
Sat 01:10:53 AM 39.8731 -84.2681 76° East 304 350 12,900 -1,200 Descending Indianapolis Center
Sat 01:11:30 AM 39.8858 -84.1908 78° East 303 349 12,200 -1,000 Descending Indianapolis Center
Sat 01:11:53 AM 39.8914 -84.1642 75° East 294 338 11,900 -985 Descending Indianapolis Center
Sat 01:12:37 AM 39.9053 -84.0792 78° East 289 333 11,100 -885 Descending Indianapolis Center
Sat 01:12:54 AM 39.9092 -84.0614 74° East 289 333 11,000 -900 Descending Indianapolis Center
Sat 01:13:37 AM 39.9233 -83.9783 77° East 286 329 10,200 -1,000 Descending Indianapolis Center
Sat 01:13:54 AM 39.9278 -83.9586 74° East 287 330 10,000 -1,082 Descending Indianapolis Center
Sat 01:14:38 AM 39.9419 -83.8744 78° East 284 327 9,100 -1,100 Descending Indianapolis Center
Sat 01:14:54 AM 39.9453 -83.8578 75° East 284 327 8,900 -984 Descending Indianapolis Center
Sat 01:15:39 AM 39.9578 -83.7758 79° East 273 314 8,100 -1,100 Descending Indianapolis Center
Sat 01:15:54 AM 39.9622 -83.7600 70° East 275 316 7,800 -1,091 Descending Indianapolis Center
Sat 01:16:45 AM 39.9778 -83.6747 77° East 264 304 6,900 -1,125 Descending Indianapolis Center
Sat 01:17:46 AM 39.9931 -83.5814 78° East 260 299 5,700 -1,140 Descending Indianapolis Center
Sat 01:18:46 AM 40.0075 -83.4961 78° East 237 273 4,600 -893 Descending Indianapolis Center
Sat 01:19:47 AM 40.0219 -83.4133 77° East 227 261 3,900 -344 Descending Indianapolis Center
Sat 01:20:48 AM 40.0356 -83.3414 76° East 196 226 3,900 -47 Level Indianapolis Center
Sat 01:21:56 AM 40.0481 -83.2647 78° East 209 241 3,800 -88 Descending Indianapolis Center

Login

Don't have an account? Register now (free) for customized features, flight alerts, and more!